Time;durP1;ratioP1;P1;durP2;ratioP2;P2;SDS_P1;SDS_P2;PMS_P1;PMS_P2;Temp;Humidity;BMP_temperature;BMP_pressure;BME280_temperature;BME280_humidity;BME280_pressure;Samples;Min_cycle;Max_cycle;Signal;HPM_P1;HPM_P2
2023/06/30 00:00:57;;;;;;;4.45;1.85;;;;;;;17.36;100.00;100960.97;4941651;28;20442;-75
2023/06/30 00:03:24;;;;;;;3.83;1.67;;;;;;;17.34;100.00;100957.84;4939337;28;20128;-70
2023/06/30 00:05:51;;;;;;;4.72;1.65;;;;;;;17.28;100.00;100967.31;4945419;28;20402;-73
2023/06/30 00:08:18;;;;;;;6.10;1.80;;;;;;;17.20;100.00;100964.00;4940866;28;20079;-75
2023/06/30 00:10:45;;;;;;;6.20;1.80;;;;;;;17.18;100.00;100960.03;4942344;28;20043;-73
2023/06/30 00:13:12;;;;;;;4.03;1.40;;;;;;;17.21;100.00;100971.16;4941262;28;20051;-70
2023/06/30 00:15:38;;;;;;;6.15;1.67;;;;;;;17.18;100.00;100971.28;4947465;28;20800;-72
2023/06/30 00:18:05;;;;;;;4.07;1.50;;;;;;;17.18;100.00;100963.66;4951395;28;20074;-73
2023/06/30 00:20:33;;;;;;;6.03;1.88;;;;;;;17.10;100.00;100967.94;4954089;28;20126;-68
2023/06/30 00:23:00;;;;;;;4.35;1.77;;;;;;;17.13;100.00;100972.69;4948491;28;20054;-73
2023/06/30 00:25:27;;;;;;;8.27;1.98;;;;;;;17.12;100.00;100964.69;4945556;28;20054;-66
2023/06/30 00:27:53;;;;;;;5.78;1.88;;;;;;;17.06;100.00;100961.66;4959232;28;20055;-72
2023/06/30 00:30:20;;;;;;;4.57;1.70;;;;;;;16.97;100.00;100972.03;4942474;28;20130;-74
2023/06/30 00:32:46;;;;;;;3.55;2.10;;;;;;;16.94;100.00;100965.31;4949500;28;20138;-73
2023/06/30 00:35:13;;;;;;;9.25;2.30;;;;;;;16.92;100.00;100953.72;4957237;28;20047;-70
2023/06/30 00:37:40;;;;;;;7.15;2.10;;;;;;;16.96;100.00;100956.41;4945311;28;20169;-72
2023/06/30 00:40:07;;;;;;;6.07;1.88;;;;;;;16.99;100.00;100958.31;4949867;28;20055;-68
2023/06/30 00:42:33;;;;;;;7.32;2.25;;;;;;;16.97;100.00;100958.78;4961532;28;20050;-71
2023/06/30 00:45:00;;;;;;;10.43;2.20;;;;;;;16.96;100.00;100962.03;4963714;28;20055;-72
2023/06/30 00:47:26;;;;;;;7.68;2.58;;;;;;;16.92;100.00;100967.00;4940815;28;20055;-72
2023/06/30 00:49:53;;;;;;;12.02;2.65;;;;;;;16.82;100.00;100966.16;4960282;28;20505;-73
2023/06/30 00:52:20;;;;;;;9.15;2.88;;;;;;;16.73;100.00;100960.44;4960611;28;20055;-73
2023/06/30 00:54:47;;;;;;;7.50;2.75;;;;;;;16.55;100.00;100962.28;4951306;28;20051;-71
2023/06/30 00:57:13;;;;;;;7.28;2.85;;;;;;;16.50;100.00;100965.66;4957543;28;20540;-71
2023/06/30 00:59:40;;;;;;;12.43;3.00;;;;;;;16.36;100.00;100972.53;4961485;28;20086;-70
2023/06/30 01:02:14;;;;;;;8.70;3.03;;;;;;;16.22;100.00;100967.34;4952284;28;20584;-71
2023/06/30 01:04:54;;;;;;;10.60;3.25;;;;;;;16.16;100.00;100962.75;4952887;28;20079;-70
2023/06/30 01:07:40;;;;;;;7.05;2.97;;;;;;;15.98;100.00;100968.94;4956144;28;20056;-71
2023/06/30 01:10:09;;;;;;;14.13;4.00;;;;;;;15.98;100.00;100974.53;4953172;28;20517;-72
2023/06/30 01:12:37;;;;;;;13.45;4.07;;;;;;;15.93;100.00;100980.69;4961766;28;20077;-72
2023/06/30 01:15:05;;;;;;;10.02;3.60;;;;;;;15.91;100.00;100985.97;4963349;28;20130;-71
2023/06/30 01:17:33;;;;;;;10.05;3.88;;;;;;;15.87;100.00;100985.28;4951718;28;20059;-73
2023/06/30 01:20:04;;;;;;;11.88;4.15;;;;;;;15.77;100.00;100978.00;4963395;28;20061;-72
2023/06/30 01:22:56;;;;;;;11.75;4.80;;;;;;;15.76;100.00;100979.22;4954600;28;20201;-73
2023/06/30 01:25:27;;;;;;;13.68;5.03;;;;;;;15.75;100.00;100979.66;4961698;28;20054;-70
2023/06/30 01:27:55;;;;;;;12.77;4.70;;;;;;;15.68;100.00;100989.09;4970417;28;20141;-73
2023/06/30 01:30:23;;;;;;;14.55;5.15;;;;;;;15.54;100.00;100981.09;4961082;28;20043;-75
2023/06/30 01:32:54;;;;;;;11.68;4.72;;;;;;;15.54;100.00;100983.91;4952718;28;20058;-72
2023/06/30 01:35:22;;;;;;;8.85;4.70;;;;;;;15.60;100.00;100986.94;4955901;28;20051;-72
2023/06/30 01:37:49;;;;;;;11.25;5.07;;;;;;;15.56;100.00;100992.63;4964052;28;20540;-73
2023/06/30 01:40:16;;;;;;;12.18;5.15;;;;;;;15.50;100.00;100991.63;4961413;28;20059;-73
2023/06/30 01:42:44;;;;;;;11.82;5.13;;;;;;;15.42;100.00;100998.66;4958037;28;20562;-73
2023/06/30 01:45:12;;;;;;;10.82;4.38;;;;;;;15.38;100.00;100992.38;4960608;28;20078;-73
2023/06/30 01:47:38;;;;;;;12.88;5.35;;;;;;;15.40;100.00;101005.94;4968355;28;20059;-73
2023/06/30 01:50:06;;;;;;;11.05;5.57;;;;;;;15.33;100.00;101001.31;4955650;28;20078;-72
2023/06/30 01:52:33;;;;;;;14.27;5.93;;;;;;;15.30;100.00;101007.78;4961867;28;20088;-73
2023/06/30 01:54:59;;;;;;;14.52;5.70;;;;;;;15.29;100.00;101009.00;4963685;28;20149;-73
2023/06/30 01:57:26;;;;;;;13.95;5.97;;;;;;;15.22;100.00;101022.44;4971333;28;20054;-72
2023/06/30 01:59:52;;;;;;;19.13;6.18;;;;;;;15.26;100.00;101023.13;4956350;28;20078;-74
2023/06/30 02:02:19;;;;;;;15.20;5.93;;;;;;;15.26;100.00;101028.72;4956385;28;20102;-71
2023/06/30 02:04:45;;;;;;;13.85;6.82;;;;;;;15.24;100.00;101025.56;4948963;28;20638;-67
2023/06/30 02:07:12;;;;;;;11.93;5.15;;;;;;;15.13;100.00;101025.06;4955619;28;20051;-70
2023/06/30 02:09:39;;;;;;;15.02;6.70;;;;;;;15.14;100.00;101015.44;4952831;28;20066;-74
2023/06/30 02:12:14;;;;;;;;;;;;;;;15.26;100.00;101009.88;4945089;28;20514;-71
2023/06/30 02:14:41;;;;;;;15.88;5.82;;;;;;;15.32;100.00;100999.72;4958425;28;20674;-73
2023/06/30 02:17:10;;;;;;;15.27;6.10;;;;;;;15.36;100.00;101010.88;4959760;28;20098;-72
2023/06/30 02:19:36;;;;;;;16.15;6.90;;;;;;;15.38;100.00;101003.59;4958808;28;20129;-70
2023/06/30 02:22:03;;;;;;;15.13;6.93;;;;;;;15.44;100.00;101001.81;4962341;28;20131;-72
2023/06/30 02:24:30;;;;;;;15.75;6.05;;;;;;;15.46;100.00;100999.34;4953347;28;20769;-72
2023/06/30 02:26:56;;;;;;;19.70;7.00;;;;;;;15.44;100.00;100998.22;4949044;28;20082;-71
2023/06/30 02:29:23;;;;;;;15.23;6.18;;;;;;;15.41;100.00;101011.09;4952239;28;20510;-70
2023/06/30 02:31:49;;;;;;;14.55;6.20;;;;;;;15.43;100.00;101005.84;4958631;28;20891;-73
2023/06/30 02:34:16;;;;;;;17.30;7.53;;;;;;;15.46;100.00;101016.16;4946079;28;20150;-71
2023/06/30 02:36:42;;;;;;;12.57;6.38;;;;;;;15.34;100.00;101005.69;4967285;28;20066;-68
2023/06/30 02:39:09;;;;;;;14.55;6.15;;;;;;;15.39;100.00;101005.16;4953565;28;20078;-72
2023/06/30 02:41:36;;;;;;;13.93;6.07;;;;;;;15.41;100.00;101013.91;4962345;28;20062;-71
2023/06/30 02:44:03;;;;;;;15.13;6.35;;;;;;;15.43;100.00;101013.47;4960033;28;20043;-71
2023/06/30 02:46:29;;;;;;;14.48;5.97;;;;;;;15.41;100.00;101021.50;4958393;28;20083;-72
2023/06/30 02:48:56;;;;;;;15.32;7.15;;;;;;;15.42;100.00;101023.09;4967896;28;20541;-74
2023/06/30 02:51:22;;;;;;;14.73;6.30;;;;;;;15.41;100.00;101033.53;4943374;28;20150;-72
2023/06/30 02:53:49;;;;;;;13.70;5.75;;;;;;;15.39;100.00;101032.41;4948656;28;20078;-74
2023/06/30 02:56:15;;;;;;;17.35;5.75;;;;;;;15.40;100.00;101023.56;4963196;28;20082;-72
2023/06/30 02:58:42;;;;;;;14.60;5.95;;;;;;;15.44;100.00;101038.25;4963036;28;20051;-70
2023/06/30 03:01:08;;;;;;;16.92;6.50;;;;;;;15.46;100.00;101027.34;4956983;28;20053;-71
2023/06/30 03:03:35;;;;;;;14.23;6.20;;;;;;;15.48;100.00;101036.13;4959431;28;20086;-71
2023/06/30 03:06:02;;;;;;;15.30;6.18;;;;;;;15.48;100.00;101036.13;4947892;28;20501;-69
2023/06/30 03:08:30;;;;;;;15.20;5.63;;;;;;;15.54;100.00;101047.56;4959595;28;20120;-72
2023/06/30 03:10:56;;;;;;;15.45;6.88;;;;;;;15.46;100.00;101038.56;4956383;28;20044;-74
2023/06/30 03:13:23;;;;;;;12.90;5.03;;;;;;;15.38;100.00;101042.00;4950931;28;20138;-73
2023/06/30 03:15:49;;;;;;;12.73;5.13;;;;;;;15.27;100.00;101052.69;4959215;28;20492;-73
2023/06/30 03:18:16;;;;;;;12.65;5.38;;;;;;;15.31;100.00;101047.78;4946737;28;20162;-73
2023/06/30 03:20:42;;;;;;;13.63;5.00;;;;;;;15.33;100.00;101050.94;4955141;28;20043;-71
2023/06/30 03:23:12;;;;;;;19.27;6.07;;;;;;;15.28;100.00;101054.25;4959082;28;20454;-72
2023/06/30 03:25:39;;;;;;;13.23;6.35;;;;;;;15.15;100.00;101048.59;4953568;28;20121;-71
2023/06/30 03:28:05;;;;;;;11.73;5.32;;;;;;;15.26;100.00;101049.09;4951537;28;20074;-72
2023/06/30 03:30:32;;;;;;;17.65;5.07;;;;;;;15.24;100.00;101043.16;4948168;28;20494;-73
2023/06/30 03:32:58;;;;;;;14.90;5.47;;;;;;;15.25;100.00;101036.31;4941552;28;20102;-71
2023/06/30 03:35:25;;;;;;;12.35;4.90;;;;;;;15.30;100.00;101032.22;4955980;28;20604;-74
2023/06/30 03:37:51;;;;;;;17.67;5.68;;;;;;;15.33;100.00;101034.94;4954866;28;20106;-71
2023/06/30 03:40:18;;;;;;;13.65;4.80;;;;;;;15.36;100.00;101028.44;4970043;28;20101;-71
2023/06/30 03:42:44;;;;;;;18.70;5.25;;;;;;;15.29;100.00;101027.84;4960790;28;20183;-70
2023/06/30 03:45:11;;;;;;;12.13;4.88;;;;;;;15.24;100.00;101020.75;4950586;28;20126;-71
2023/06/30 03:47:38;;;;;;;17.48;5.55;;;;;;;15.19;100.00;101023.31;4949727;28;20070;-71
2023/06/30 03:50:05;;;;;;;16.13;4.78;;;;;;;15.20;100.00;101025.69;4949631;28;20520;-71
2023/06/30 03:52:32;;;;;;;13.60;5.38;;;;;;;15.20;100.00;101024.88;4955180;28;20062;-71
2023/06/30 03:54:58;;;;;;;15.50;5.07;;;;;;;15.19;100.00;101029.69;4953600;28;20114;-73
2023/06/30 03:57:25;;;;;;;12.82;4.35;;;;;;;15.02;100.00;101033.75;4953056;28;20077;-73
2023/06/30 03:59:51;;;;;;;16.42;5.15;;;;;;;14.93;100.00;101025.97;4967129;28;20094;-72
2023/06/30 04:02:18;;;;;;;16.98;4.97;;;;;;;14.99;100.00;101021.44;4969618;28;20574;-73
2023/06/30 04:04:44;;;;;;;14.52;4.70;;;;;;;15.00;100.00;101023.00;4949954;28;20146;-73
2023/06/30 04:07:11;;;;;;;15.75;5.25;;;;;;;14.98;100.00;101025.47;4946838;28;20574;-71
2023/06/30 04:09:38;;;;;;;15.48;4.78;;;;;;;14.92;100.00;101026.41;4948509;28;20055;-75
2023/06/30 04:12:05;;;;;;;13.80;4.80;;;;;;;14.94;100.00;101024.78;4960347;28;20051;-73
2023/06/30 04:14:32;;;;;;;16.88;5.32;;;;;;;15.01;100.00;101018.19;4974220;28;20079;-71
2023/06/30 04:16:58;;;;;;;12.88;4.45;;;;;;;15.07;100.00;101010.84;4946355;28;20086;-72
2023/06/30 04:19:25;;;;;;;16.45;4.97;;;;;;;15.09;100.00;101008.34;4961663;28;20082;-73
2023/06/30 04:21:52;;;;;;;12.93;4.40;;;;;;;15.04;100.00;101008.91;4957383;28;20561;-72
2023/06/30 04:24:19;;;;;;;12.25;4.35;;;;;;;14.96;100.00;101004.75;4956140;28;20894;-74
2023/06/30 04:26:46;;;;;;;16.25;4.88;;;;;;;14.98;100.00;101011.47;4948350;28;20065;-74
2023/06/30 04:29:12;;;;;;;16.15;5.20;;;;;;;14.99;100.00;100992.66;4946465;29;20485;-74
2023/06/30 04:31:42;;;;;;;12.23;4.70;;;;;;;15.04;100.00;101000.50;4949864;28;20053;-73
2023/06/30 04:34:08;;;;;;;14.57;4.57;;;;;;;14.94;100.00;101007.19;4955500;28;20047;-74
2023/06/30 04:36:35;;;;;;;18.75;5.40;;;;;;;14.91;100.00;101005.25;4946976;28;20091;-75
2023/06/30 04:39:02;;;;;;;12.32;4.20;;;;;;;14.83;100.00;101006.69;4959125;28;20071;-72
2023/06/30 04:41:28;;;;;;;13.88;4.65;;;;;;;14.85;100.00;101018.19;4961632;28;20121;-71
2023/06/30 04:43:55;;;;;;;16.65;4.68;;;;;;;14.84;100.00;101013.84;4959937;28;20114;-74
2023/06/30 04:46:24;;;;;;;12.50;4.15;;;;;;;14.76;100.00;101015.25;4949393;28;20051;-71
2023/06/30 04:48:51;;;;;;;16.65;4.47;;;;;;;14.74;100.00;101015.69;4957190;28;20517;-70
2023/06/30 04:51:18;;;;;;;14.35;4.53;;;;;;;14.70;100.00;101022.59;4968922;28;20646;-73
2023/06/30 04:53:45;;;;;;;14.82;4.30;;;;;;;14.66;100.00;101030.31;4956214;28;20059;-73
2023/06/30 04:56:12;;;;;;;19.42;4.70;;;;;;;14.65;100.00;101029.50;4945728;28;20469;-73
2023/06/30 04:58:38;;;;;;;18.75;5.10;;;;;;;14.62;100.00;101027.59;4953575;28;20133;-71
2023/06/30 05:01:05;;;;;;;15.15;4.53;;;;;;;14.62;100.00;101041.56;4951277;28;20066;-71
2023/06/30 05:03:31;;;;;;;14.43;4.72;;;;;;;14.66;100.00;101041.50;4949361;28;20073;-75
2023/06/30 05:05:59;;;;;;;14.30;4.90;;;;;;;14.61;100.00;101048.41;4959308;28;20082;-74
2023/06/30 05:08:26;;;;;;;15.40;4.88;;;;;;;14.61;100.00;101045.59;4968954;28;20078;-73
2023/06/30 05:10:52;;;;;;;12.82;4.47;;;;;;;14.53;100.00;101037.81;4959388;28;20040;-70
2023/06/30 05:13:19;;;;;;;18.10;4.72;;;;;;;14.58;100.00;101048.47;4943851;28;20142;-72
2023/06/30 05:15:45;;;;;;;14.65;3.95;;;;;;;14.54;100.00;101042.19;4965721;28;20051;-71
2023/06/30 05:18:14;;;;;;;14.23;4.03;;;;;;;14.64;100.00;101041.16;4953236;28;20089;-74
2023/06/30 05:20:40;;;;;;;12.98;3.80;;;;;;;14.64;100.00;101044.75;4958065;28;20090;-71
2023/06/30 05:23:07;;;;;;;11.98;3.80;;;;;;;14.64;100.00;101043.94;4949486;28;20051;-69
2023/06/30 05:25:34;;;;;;;12.48;3.92;;;;;;;14.57;100.00;101042.13;4949898;28;20085;-69
2023/06/30 05:28:01;;;;;;;11.95;4.15;;;;;;;14.57;100.00;101050.50;4948942;28;20201;-71
2023/06/30 05:30:27;;;;;;;11.32;4.20;;;;;;;14.64;100.00;101052.34;4949788;28;20071;-69
2023/06/30 05:32:54;;;;;;;18.33;4.82;;;;;;;14.60;100.00;101054.44;4947507;28;20047;-74
2023/06/30 05:35:20;;;;;;;9.63;3.63;;;;;;;14.64;100.00;101055.13;4955314;28;20070;-73
2023/06/30 05:37:47;;;;;;;15.55;4.40;;;;;;;14.73;100.00;101058.13;4953012;28;20118;-73
2023/06/30 05:40:14;;;;;;;15.20;3.65;;;;;;;14.81;100.00;101040.72;4957811;28;20173;-69
2023/06/30 05:42:40;;;;;;;14.70;4.22;;;;;;;14.84;100.00;101039.03;4960745;28;20166;-70
2023/06/30 05:45:07;;;;;;;11.65;4.05;;;;;;;14.88;100.00;101034.91;4952559;28;20051;-72
2023/06/30 05:47:34;;;;;;;13.55;3.65;;;;;;;14.99;100.00;101029.81;4949082;28;20469;-72
2023/06/30 05:50:00;;;;;;;10.77;3.03;;;;;;;15.07;100.00;101027.63;4951334;28;20051;-72
2023/06/30 05:52:27;;;;;;;12.48;3.28;;;;;;;15.19;100.00;101037.31;4950864;28;20128;-72
2023/06/30 05:54:54;;;;;;;10.57;2.67;;;;;;;15.29;100.00;101042.63;4961064;28;20104;-70
2023/06/30 05:57:20;;;;;;;12.98;3.05;;;;;;;15.39;100.00;101030.34;4958088;28;20073;-71
2023/06/30 05:59:47;;;;;;;15.02;3.53;;;;;;;15.49;100.00;101031.31;4952605;28;20518;-76
2023/06/30 06:02:13;;;;;;;12.00;2.80;;;;;;;15.50;100.00;101030.88;4952048;28;20043;-71
2023/06/30 06:04:40;;;;;;;11.90;3.03;;;;;;;15.57;100.00;101033.47;4952591;28;20059;-73
2023/06/30 06:07:07;;;;;;;16.80;3.25;;;;;;;15.57;100.00;101032.66;4952454;28;20553;-72
2023/06/30 06:09:34;;;;;;;9.68;3.03;;;;;;;15.54;100.00;101039.16;4957145;28;20142;-72
2023/06/30 06:12:02;;;;;;;6.72;2.70;;;;;;;15.58;100.00;101034.22;4952755;28;20458;-72
2023/06/30 06:14:28;;;;;;;15.77;3.20;;;;;;;15.61;100.00;101034.16;4958394;28;20514;-70
2023/06/30 06:16:55;;;;;;;12.98;2.85;;;;;;;15.52;100.00;101036.78;4953306;28;20055;-73
2023/06/30 06:19:22;;;;;;;18.83;3.17;;;;;;;15.59;100.00;101036.59;4959361;28;20065;-73
2023/06/30 06:21:48;;;;;;;15.77;3.65;;;;;;;15.65;100.00;101034.81;4955258;28;20098;-71
2023/06/30 06:24:17;;;;;;;14.10;3.47;;;;;;;15.61;100.00;101031.34;4950883;28;20772;-68
2023/06/30 06:26:44;;;;;;;15.02;3.33;;;;;;;15.54;100.00;101037.16;4959853;28;20109;-70
2023/06/30 06:29:14;;;;;;;8.98;3.10;;;;;;;15.50;100.00;101049.69;4948784;29;20055;-69
2023/06/30 06:31:43;;;;;;;10.43;3.58;;;;;;;15.40;100.00;101047.97;4956002;28;20066;-74
2023/06/30 06:34:09;;;;;;;9.35;3.42;;;;;;;15.47;100.00;101044.97;4939373;28;20070;-70
2023/06/30 06:36:36;;;;;;;11.35;3.47;;;;;;;15.43;100.00;101055.50;4948592;28;20128;-71
2023/06/30 06:39:03;;;;;;;16.20;3.20;;;;;;;15.36;100.00;101055.69;4948281;28;20081;-71
2023/06/30 06:41:30;;;;;;;12.55;3.65;;;;;;;15.36;100.00;101064.09;4960129;28;20055;-69
2023/06/30 06:43:57;;;;;;;15.10;3.65;;;;;;;15.32;100.00;101060.56;4951578;28;20173;-68
2023/06/30 06:46:23;;;;;;;9.93;3.08;;;;;;;15.33;100.00;101059.34;4951484;28;20688;-68
2023/06/30 06:48:50;;;;;;;16.80;3.50;;;;;;;15.42;100.00;101065.13;4960108;28;20089;-70
2023/06/30 06:51:17;;;;;;;12.07;3.85;;;;;;;15.47;100.00;101067.38;4959561;28;20593;-69
2023/06/30 06:53:43;;;;;;;12.35;3.15;;;;;;;15.57;100.00;101055.88;4950300;28;20835;-70
2023/06/30 06:56:10;;;;;;;20.05;3.35;;;;;;;15.62;100.00;101058.13;4958227;28;20078;-70
2023/06/30 06:58:37;;;;;;;13.20;3.45;;;;;;;15.67;100.00;101051.19;4964553;28;20109;-71
2023/06/30 07:01:05;;;;;;;14.82;4.18;;;;;;;15.69;100.00;101043.91;4954155;28;20570;-70
2023/06/30 07:03:31;;;;;;;12.07;2.97;;;;;;;15.56;100.00;101047.91;4944458;28;20143;-68
2023/06/30 07:05:58;;;;;;;14.23;3.22;;;;;;;15.63;100.00;101037.28;4951201;28;20055;-71
2023/06/30 07:08:26;;;;;;;13.18;2.78;;;;;;;15.69;100.00;101041.09;4946128;28;20059;-72
2023/06/30 07:10:53;;;;;;;11.65;2.63;;;;;;;15.63;100.00;101045.69;4950126;28;20059;-68
2023/06/30 07:13:21;;;;;;;10.38;2.45;;;;;;;15.77;100.00;101025.66;4951859;28;20084;-69
2023/06/30 07:15:48;;;;;;;11.00;2.58;;;;;;;15.95;100.00;101031.53;4948381;28;20470;-72
2023/06/30 07:18:19;;;;;;;9.63;2.78;;;;;;;16.07;100.00;101041.94;4962496;28;20066;-73
2023/06/30 07:20:50;;;;;;;12.20;3.13;;;;;;;16.24;100.00;101035.00;4962793;28;20489;-71
2023/06/30 07:23:17;;;;;;;17.52;3.67;;;;;;;16.39;100.00;101036.16;4948136;28;20429;-72
2023/06/30 07:25:45;;;;;;;15.70;2.40;;;;;;;16.53;100.00;101037.72;4950999;28;20055;-70
2023/06/30 07:28:13;;;;;;;16.77;2.35;;;;;;;16.66;100.00;101039.28;4953294;28;20053;-69
2023/06/30 07:30:41;;;;;;;7.97;1.98;;;;;;;16.76;100.00;101051.38;4947765;28;20497;-73
2023/06/30 07:33:10;;;;;;;9.57;2.10;;;;;;;16.88;100.00;101040.13;4949820;28;20051;-70
2023/06/30 07:35:37;;;;;;;12.13;2.85;;;;;;;17.00;100.00;101038.53;4948206;28;20051;-67
2023/06/30 07:38:04;;;;;;;17.50;2.45;;;;;;;17.11;100.00;101038.97;4952310;28;20070;-74
2023/06/30 07:40:30;;;;;;;9.82;2.35;;;;;;;17.16;100.00;101046.81;4964200;28;20138;-71
2023/06/30 07:43:16;;;;;;;6.93;1.98;;;;;;;17.19;100.00;101043.88;4943082;28;20126;-72
2023/06/30 07:45:42;;;;;;;9.73;2.17;;;;;;;17.30;100.00;101046.31;4954624;28;20425;-70
2023/06/30 07:48:10;;;;;;;7.28;2.08;;;;;;;17.35;100.00;101046.50;4957900;28;20571;-73
2023/06/30 07:50:36;;;;;;;15.90;2.22;;;;;;;17.48;100.00;101045.69;4954882;28;20514;-68
2023/06/30 07:53:08;;;;;;;9.93;1.88;;;;;;;17.63;100.00;101041.09;4959211;28;20057;-69
2023/06/30 07:55:34;;;;;;;11.73;3.05;;;;;;;17.66;100.00;101046.59;4946975;28;20047;-67
2023/06/30 07:58:01;;;;;;;9.43;2.40;;;;;;;17.72;100.00;101043.97;4950953;28;20514;-73
2023/06/30 08:00:30;;;;;;;7.55;1.73;;;;;;;17.81;100.00;101042.00;4959741;28;20081;-70
2023/06/30 08:02:56;;;;;;;7.88;2.40;;;;;;;17.85;100.00;101039.06;4956771;28;20054;-68
2023/06/30 08:05:24;;;;;;;8.23;2.65;;;;;;;17.95;100.00;101052.75;4942787;28;20083;-66
2023/06/30 08:07:50;;;;;;;7.25;2.88;;;;;;;18.04;100.00;101049.19;4943293;28;20082;-70
2023/06/30 08:10:17;;;;;;;9.02;2.58;;;;;;;18.11;100.00;101051.72;4953840;28;20093;-69
2023/06/30 08:12:44;;;;;;;7.57;1.85;;;;;;;18.04;100.00;101054.81;4961671;28;20114;-69
2023/06/30 08:15:11;;;;;;;7.90;1.90;;;;;;;17.74;100.00;101058.34;4969514;28;20101;-71
2023/06/30 08:17:37;;;;;;;16.63;2.65;;;;;;;17.77;100.00;101057.44;4963340;28;20157;-68
2023/06/30 08:20:23;;;;;;;9.40;2.42;;;;;;;17.56;100.00;101044.19;4948643;28;20082;-68
2023/06/30 08:22:50;;;;;;;7.57;2.10;;;;;;;17.30;100.00;101044.31;4953362;28;20057;-71
2023/06/30 08:25:22;;;;;;;6.72;2.00;;;;;;;17.30;100.00;101055.53;4950648;28;20051;-72
2023/06/30 08:27:49;;;;;;;8.60;2.28;;;;;;;17.48;100.00;101057.69;4958236;28;20058;-69
2023/06/30 08:30:16;;;;;;;7.82;2.22;;;;;;;17.46;100.00;101062.22;4949117;28;20157;-69
2023/06/30 08:32:44;;;;;;;7.38;2.17;;;;;;;17.52;100.00;101061.19;4957135;28;20909;-68
2023/06/30 08:35:11;;;;;;;7.57;2.00;;;;;;;17.76;100.00;101064.31;4956124;28;20059;-70
2023/06/30 08:37:38;;;;;;;8.57;2.25;;;;;;;17.86;100.00;101054.69;4946997;28;20106;-73
2023/06/30 08:40:06;;;;;;;9.13;2.00;;;;;;;17.78;100.00;101047.78;4946538;28;20051;-70
2023/06/30 08:42:36;;;;;;;4.60;1.50;;;;;;;17.36;100.00;101050.13;4953122;28;20200;-72
2023/06/30 08:45:03;;;;;;;12.85;2.80;;;;;;;17.55;100.00;101048.25;4946919;28;20114;-73
2023/06/30 08:47:32;;;;;;;9.32;1.77;;;;;;;17.35;100.00;101043.72;4945345;28;20067;-75
2023/06/30 08:49:59;;;;;;;5.43;1.75;;;;;;;17.63;100.00;101055.16;4949324;28;20058;-73
2023/06/30 08:52:26;;;;;;;6.82;2.05;;;;;;;17.68;100.00;101046.91;4953757;28;20540;-75
2023/06/30 08:54:53;;;;;;;6.63;1.98;;;;;;;17.59;100.00;101046.06;4944409;28;20047;-71
2023/06/30 08:57:20;;;;;;;10.05;2.00;;;;;;;17.80;100.00;101039.66;4948569;28;20162;-73
2023/06/30 08:59:48;;;;;;;7.88;2.53;;;;;;;18.02;100.00;101034.81;4942803;28;20052;-76
2023/06/30 09:02:14;;;;;;;9.68;1.83;;;;;;;18.13;100.00;101032.38;4945801;28;20051;-69
2023/06/30 09:04:42;;;;;;;4.72;1.60;;;;;;;18.30;100.00;101036.50;4953702;28;20078;-71
2023/06/30 09:07:18;;;;;;;8.93;2.13;;;;;;;18.35;100.00;101036.69;4950736;28;20462;-72
2023/06/30 09:09:45;;;;;;;4.88;1.70;;;;;;;18.47;100.00;101032.19;4944156;28;20060;-73
2023/06/30 09:12:14;;;;;;;7.22;1.80;;;;;;;18.62;100.00;101030.34;4944048;28;20063;-73
2023/06/30 09:14:44;;;;;;;9.55;1.90;;;;;;;18.85;100.00;101036.25;4941936;28;20143;-74
2023/06/30 09:17:10;;;;;;;3.38;1.33;;;;;;;18.99;100.00;101032.03;4961106;28;20517;-70
2023/06/30 09:19:38;;;;;;;6.75;1.55;;;;;;;19.11;100.00;101028.28;4973095;28;20134;-69
2023/06/30 09:22:05;;;;;;;6.85;1.70;;;;;;;19.01;100.00;101024.66;4956194;28;20048;-70
2023/06/30 09:24:52;;;;;;;7.40;2.20;;;;;;;18.74;100.00;101018.22;4956485;28;20058;-70
2023/06/30 09:27:18;;;;;;;7.90;2.03;;;;;;;18.88;100.00;101014.78;4956439;28;20098;-71
2023/06/30 09:29:55;;;;;;;5.88;1.95;;;;;;;18.94;100.00;101013.69;4954885;28;20051;-75
2023/06/30 09:32:32;;;;;;;10.88;1.85;;;;;;;18.90;100.00;101013.06;4959077;28;20058;-69
2023/06/30 09:35:06;;;;;;;7.57;1.85;;;;;;;18.61;100.00;101017.53;4972344;28;20054;-71
2023/06/30 09:37:42;;;;;;;6.95;1.45;;;;;;;18.66;100.00;101022.53;4966504;28;20568;-70
2023/06/30 09:40:15;;;;;;;7.82;1.88;;;;;;;18.73;100.00;101027.94;4968749;28;20140;-71
2023/06/30 09:42:45;;;;;;;4.75;1.63;;;;;;;18.88;100.00;101023.25;4965846;28;20078;-69
2023/06/30 09:45:13;;;;;;;6.47;1.20;;;;;;;19.04;100.00;101022.97;4960453;28;20055;-71
2023/06/30 09:47:41;;;;;;;3.58;1.67;;;;;;;19.20;100.00;101026.25;4956909;28;20055;-69
2023/06/30 09:50:10;;;;;;;5.63;1.52;;;;;;;19.40;100.00;101018.09;4963259;28;20154;-69
2023/06/30 09:52:37;;;;;;;4.55;1.40;;;;;;;19.74;100.00;101016.97;4957795;28;20042;-70
2023/06/30 09:55:10;;;;;;;4.68;1.38;;;;;;;19.81;100.00;101016.63;4962801;28;20043;-71
2023/06/30 09:57:37;;;;;;;7.15;1.83;;;;;;;19.87;100.00;101003.47;4957711;28;20455;-66
2023/06/30 10:00:05;;;;;;;4.60;1.73;;;;;;;19.44;100.00;101006.66;4963262;28;20058;-69
2023/06/30 10:02:31;;;;;;;4.80;1.20;;;;;;;19.24;100.00;101006.38;4958000;28;20079;-73
2023/06/30 10:04:58;;;;;;;2.42;1.15;;;;;;;19.40;100.00;101006.03;4961636;28;20129;-69
2023/06/30 10:07:25;;;;;;;7.70;1.60;;;;;;;19.44;100.00;101009.47;4953206;28;20118;-75
2023/06/30 10:09:52;;;;;;;4.50;1.52;;;;;;;19.77;100.00;100998.34;4951306;28;20051;-70
2023/06/30 10:12:19;;;;;;;9.40;2.08;;;;;;;19.95;100.00;100987.00;4963639;28;20046;-71
2023/06/30 10:14:49;;;;;;;4.07;1.35;;;;;;;20.20;100.00;100990.19;4964113;28;20113;-72
2023/06/30 10:17:15;;;;;;;3.88;1.63;;;;;;;20.49;100.00;100996.00;4956897;28;20788;-71
2023/06/30 10:19:43;;;;;;;6.78;1.70;;;;;;;20.63;100.00;100992.50;4973475;28;20051;-71
2023/06/30 10:22:10;;;;;;;4.55;1.55;;;;;;;20.76;100.00;100981.72;4961852;28;20125;-70
2023/06/30 10:24:42;;;;;;;5.20;1.42;;;;;;;20.89;100.00;100996.38;4956314;28;20051;-71
2023/06/30 10:27:12;;;;;;;7.55;1.80;;;;;;;20.97;100.00;100991.97;4966954;28;20585;-71
2023/06/30 10:29:38;;;;;;;7.45;1.45;;;;;;;20.87;100.00;100995.31;4959275;28;20113;-70
2023/06/30 10:32:05;;;;;;;4.05;1.50;;;;;;;21.07;100.00;100993.47;4963195;28;20098;-70
2023/06/30 10:34:33;;;;;;;5.63;1.45;;;;;;;21.22;100.00;100987.81;4961572;28;20062;-72
2023/06/30 10:36:59;;;;;;;6.15;1.48;;;;;;;21.40;100.00;101005.41;4949484;28;20082;-69
2023/06/30 10:39:27;;;;;;;6.60;1.92;;;;;;;21.54;100.00;100998.22;4951149;28;20476;-70
2023/06/30 10:41:56;;;;;;;6.35;1.35;;;;;;;21.18;100.00;100993.69;4953345;28;20055;-69
2023/06/30 10:44:37;;;;;;;8.45;1.63;;;;;;;21.38;100.00;100988.16;4982091;28;20086;-69
2023/06/30 10:47:04;;;;;;;5.30;1.70;;;;;;;21.67;100.00;100982.53;4948732;28;20059;-70
2023/06/30 10:49:35;;;;;;;3.72;1.20;;;;;;;21.67;100.00;100985.38;4950734;28;20094;-71
2023/06/30 10:52:24;;;;;;;8.07;2.00;;;;;;;21.86;100.00;100981.06;4966558;28;20127;-69
2023/06/30 10:54:51;;;;;;;7.85;1.63;;;;;;;21.94;100.00;100975.81;4963603;28;20526;-71
2023/06/30 10:57:24;;;;;;;3.05;1.48;;;;;;;21.87;100.00;100974.13;4949145;28;20050;-68
2023/06/30 11:00:10;;;;;;;4.50;1.70;;;;;;;21.79;100.00;100969.34;4947038;28;20079;-71
2023/06/30 11:02:53;;;;;;;4.32;1.45;;;;;;;22.09;100.00;100971.69;4955241;28;20070;-71
2023/06/30 11:05:27;;;;;;;6.70;1.60;;;;;;;22.35;100.00;100971.06;4944717;28;20074;-72
2023/06/30 11:08:06;;;;;;;3.95;1.42;;;;;;;22.39;100.00;100960.28;4941284;28;20086;-70
2023/06/30 11:10:34;;;;;;;5.38;1.40;;;;;;;21.62;100.00;100954.91;4951360;28;20051;-70
2023/06/30 11:13:02;;;;;;;3.90;1.40;;;;;;;21.51;100.00;100959.59;4945920;28;20043;-71
2023/06/30 11:15:35;;;;;;;5.60;1.85;;;;;;;21.68;100.00;100953.00;4947042;28;20059;-72